Wimauma, FL

4:22 PM EDT on July 25, 2016 (GMT -0400)
#17 Tee Box at The Club at Renaissance | | Change Station

Elev 71 ft 27.69 °N, 82.36 °W | Updated 5 seconds ago

Light Drizzle
Light Drizzle
82.8 °F
Feels Like 90 °F
N
2.0
Wind Variable Wind from WNW
Gusts 2.0 mph

Today
High -- | Low -- °F
--% Chance of Precip.
Yesterday
High -- | Low -- °F
Precip. -- in
Pressure 30.02 in
Visibility 10.0 miles
Clouds Mostly Cloudy 8000 ft
Overcast 10000 ft
Heat Index 90 °F
Dew Point 75 °F
Humidity 78%
Rainfall 0.04 in
Snow Depth Not available.
6:48 AM 8:22 PM
Waning Gibbous, 63% visible
SPECI KMCF 252019Z AUTO 28004KT 10SM -DZ BKN080 OVC100 28/25 A3002 RMK AO2 RAE00DZB00E02DZB19
Pressure 30.02 in
Visibility 10.0 miles
Clouds Mostly Cloudy 8000 ft
Overcast 10000 ft
Heat Index 90 °F
Dew Point 75 °F
Humidity 78%
Rainfall 0.04 in
Snow Depth Not available.
6:48 AM 8:22 PM
Waning Gibbous, 63% visible
SPECI KMCF 252019Z AUTO 28004KT 10SM -DZ BKN080 OVC100 28/25 A3002 RMK AO2 RAE00DZB00E02DZB19
Record highs are possible for parts of the Northeast Monday and Tuesday, as parts of the central U.S. take a little breather from the worst of summer's dog day heat.

Expansive high pressure in the upper atmosphere will focus on parts of the East and West this week, sending heat indices well into the triple digits from the Mid-Atlantic states into the South.

10-Day Weather Forecast

Almanac

Astronomy

Jul. 25, 2016 Rise Set
Actual Time
Civil Twilight
Nautical Twilight
Astronomical Twilight
Moon
Length of Visible Light
Length of Day
Tomorrow will be .
, % of the Moon is Illuminated

Today's Extremes

State Highs State Lows

Community

WunderPhotos

Upload Photos

1,927,415 photos uploaded!

WunderBlog® & News

Nearby

Air Quality

  Air Quality AQ Index Pollutant
Not available.

Snow Depth

Station Depth Elevation

Earthquake Activity

City Distance Mag. Time & Date
Minimum magnitude displayed is 2.5.

Coastal Water Temperatures

Place Temperature

Stations

Nearby Weather Stations

Station Location Temp. Windchill Dew Point Humidity Wind Precip. Elev Updated Type
                   

Watches & Warnings

There are currently no watches in effect.